Time;durP1;ratioP1;P1;durP2;ratioP2;P2;SDS_P1;SDS_P2;PMS_P1;PMS_P2;Temp;Humidity;BMP_temperature;BMP_pressure;BME280_temperature;BME280_humidity;BME280_pressure;Samples;Min_cycle;Max_cycle;Signal;HPM_P1;HPM_P2
2023/12/26 00:00:06;;;;;;;1.10;1.00;;;10.40;99.90;;;;;;2071076;28;20048;-80
2023/12/26 00:01:13;;;;;;;1.33;0.93;;;10.40;99.90;;;;;;2074327;28;20064;-81
2023/12/26 00:02:13;;;;;;;0.80;0.80;;;10.40;99.90;;;;;;2079880;28;20116;-81
2023/12/26 00:03:14;;;;;;;0.80;0.80;;;10.40;99.90;;;;;;2080245;28;20074;-81
2023/12/26 00:04:15;;;;;;;0.80;0.80;;;10.40;99.90;;;;;;2077181;28;20520;-80
2023/12/26 00:05:16;;;;;;;0.80;0.80;;;10.40;99.90;;;;;;2079843;28;20460;-81
2023/12/26 00:06:22;;;;;;;0.98;0.80;;;10.50;99.90;;;;;;2087541;28;20040;-79
2023/12/26 00:07:23;;;;;;;1.10;0.80;;;10.50;99.90;;;;;;2080696;28;20093;-79
2023/12/26 00:08:24;;;;;;;1.10;1.00;;;10.50;99.90;;;;;;2079082;28;20079;-80
2023/12/26 00:09:24;;;;;;;0.98;0.90;;;10.50;99.90;;;;;;2079015;28;20121;-79
2023/12/26 00:10:25;;;;;;;0.82;0.82;;;10.50;99.90;;;;;;2072060;28;20282;-81
2023/12/26 00:11:25;;;;;;;0.80;0.80;;;10.50;99.90;;;;;;2069936;28;20463;-80
2023/12/26 00:12:26;;;;;;;0.80;0.80;;;10.50;99.90;;;;;;2075837;28;20571;-81
2023/12/26 00:13:27;;;;;;;0.80;0.80;;;10.50;99.90;;;;;;2080266;28;20491;-78
2023/12/26 00:14:27;;;;;;;0.80;0.80;;;10.50;99.90;;;;;;2077437;28;20033;-80
2023/12/26 00:15:28;;;;;;;1.10;0.75;;;10.50;99.90;;;;;;2077717;28;20155;-79
2023/12/26 00:16:28;;;;;;;0.70;0.70;;;10.50;99.90;;;;;;2084358;28;20573;-78
2023/12/26 00:17:29;;;;;;;0.70;0.70;;;10.50;99.90;;;;;;2080857;28;20152;-80
2023/12/26 00:18:30;;;;;;;0.77;0.77;;;10.50;99.90;;;;;;2078784;28;20534;-79
2023/12/26 00:19:30;;;;;;;0.70;0.70;;;10.50;99.90;;;;;;2077331;28;20034;-81
2023/12/26 00:20:31;;;;;;;0.80;0.80;;;10.60;99.90;;;;;;2079436;28;20773;-81
2023/12/26 00:21:31;;;;;;;0.70;0.70;;;10.60;99.90;;;;;;2078194;28;20115;-81
2023/12/26 00:22:34;;;;;;;0.70;0.70;;;10.50;99.90;;;;;;2088152;28;20276;-80
2023/12/26 00:23:35;;;;;;;0.70;0.70;;;10.50;99.90;;;;;;2087586;28;20021;-80
2023/12/26 00:24:36;;;;;;;0.75;0.75;;;10.50;99.90;;;;;;2077616;28;20037;-79
2023/12/26 00:25:37;;;;;;;0.65;0.65;;;10.50;99.90;;;;;;2080813;28;20033;-79
2023/12/26 00:26:38;;;;;;;0.73;0.70;;;10.60;99.90;;;;;;2080567;28;20033;-82
2023/12/26 00:27:40;;;;;;;1.30;0.70;;;10.60;99.90;;;;;;2088001;28;20031;-80
2023/12/26 00:28:41;;;;;;;0.70;0.70;;;10.60;99.90;;;;;;2071886;28;20194;-80
2023/12/26 00:29:41;;;;;;;0.82;0.80;;;10.60;99.90;;;;;;2078328;28;20048;-79
2023/12/26 00:30:43;;;;;;;0.70;0.70;;;10.60;99.90;;;;;;2080361;28;20108;-81
2023/12/26 00:31:44;;;;;;;0.90;0.90;;;10.60;99.90;;;;;;2074970;28;20083;-80
2023/12/26 00:32:44;;;;;;;0.70;0.70;;;10.60;99.90;;;;;;2071359;28;20606;-79
2023/12/26 00:33:45;;;;;;;0.80;0.80;;;10.70;99.90;;;;;;2071911;28;20079;-80
2023/12/26 00:34:46;;;;;;;0.60;0.60;;;10.70;99.90;;;;;;2076891;28;20032;-79
2023/12/26 00:35:46;;;;;;;0.80;0.80;;;10.70;99.90;;;;;;2079010;28;20028;-80
2023/12/26 00:36:47;;;;;;;0.60;0.60;;;10.70;99.90;;;;;;2073953;28;20030;-83
2023/12/26 00:37:47;;;;;;;0.70;0.70;;;10.70;99.90;;;;;;2077201;28;20040;-83
2023/12/26 00:38:48;;;;;;;0.60;0.60;;;10.70;99.90;;;;;;2079256;28;20128;-81
2023/12/26 00:39:48;;;;;;;1.40;0.80;;;10.70;99.90;;;;;;2080215;28;20029;-81
2023/12/26 00:40:49;;;;;;;0.80;0.80;;;10.70;99.90;;;;;;2086844;28;20021;-78
2023/12/26 00:41:49;;;;;;;0.70;0.70;;;10.70;99.90;;;;;;2079225;28;20028;-78
2023/12/26 00:42:50;;;;;;;0.60;0.60;;;10.70;99.90;;;;;;2086270;28;20055;-78
2023/12/26 00:43:54;;;;;;;0.60;0.60;;;10.70;99.90;;;;;;2087335;28;20021;-79
2023/12/26 00:44:55;;;;;;;0.60;0.60;;;10.80;99.90;;;;;;2085184;28;20017;-79
2023/12/26 00:45:55;;;;;;;0.60;0.60;;;10.80;99.90;;;;;;2077290;28;20056;-78
2023/12/26 00:46:56;;;;;;;0.65;0.65;;;10.80;99.90;;;;;;2076461;28;20539;-78
2023/12/26 00:47:57;;;;;;;0.95;0.63;;;10.80;99.90;;;;;;2079119;28;20107;-76
2023/12/26 00:48:57;;;;;;;0.60;0.60;;;10.80;99.90;;;;;;2078033;28;20028;-80
2023/12/26 00:49:59;;;;;;;1.27;0.70;;;10.80;99.90;;;;;;2085130;28;20148;-80
2023/12/26 00:50:59;;;;;;;0.50;0.50;;;10.80;99.90;;;;;;2079463;28;20411;-79
2023/12/26 00:52:00;;;;;;;1.40;0.60;;;10.80;99.90;;;;;;2074816;28;20112;-78
2023/12/26 00:53:03;;;;;;;0.52;0.50;;;10.80;99.90;;;;;;2066722;28;20381;-77
2023/12/26 00:54:04;;;;;;;0.70;0.70;;;10.80;99.90;;;;;;2059619;28;20038;-78
2023/12/26 00:55:06;;;;;;;0.60;0.60;;;10.80;99.90;;;;;;2074648;28;20526;-78
2023/12/26 00:56:07;;;;;;;0.60;0.60;;;10.80;99.90;;;;;;2075520;28;20033;-78
2023/12/26 00:57:08;;;;;;;0.60;0.60;;;10.80;99.90;;;;;;2075142;28;20028;-78
2023/12/26 00:58:08;;;;;;;0.60;0.60;;;10.80;99.90;;;;;;2075224;28;20025;-79
2023/12/26 00:59:09;;;;;;;0.65;0.65;;;10.80;99.90;;;;;;2079868;28;20408;-79
2023/12/26 01:00:10;;;;;;;0.60;0.60;;;10.80;99.90;;;;;;2078531;28;20032;-78
2023/12/26 01:01:11;;;;;;;0.63;0.63;;;10.80;99.90;;;;;;2067122;28;20444;-78
2023/12/26 01:02:12;;;;;;;0.60;0.60;;;10.80;99.90;;;;;;2067186;28;20036;-78
2023/12/26 01:03:15;;;;;;;1.38;0.60;;;10.90;99.90;;;;;;2070820;28;20081;-79
2023/12/26 01:04:17;;;;;;;0.60;0.60;;;10.80;99.90;;;;;;2070779;28;20025;-80
2023/12/26 01:05:18;;;;;;;0.60;0.60;;;10.80;99.90;;;;;;2076296;28;20038;-79
2023/12/26 01:06:18;;;;;;;0.60;0.60;;;10.90;99.90;;;;;;2078381;28;20653;-79
2023/12/26 01:07:19;;;;;;;0.75;0.55;;;10.90;99.90;;;;;;2079010;28;20049;-81
2023/12/26 01:08:19;;;;;;;0.60;0.60;;;10.90;99.90;;;;;;2075832;28;20029;-79
2023/12/26 01:09:20;;;;;;;0.63;0.60;;;10.90;99.90;;;;;;2086179;28;20032;-78
2023/12/26 01:10:21;;;;;;;0.93;0.60;;;10.90;99.90;;;;;;2087177;28;20517;-79
2023/12/26 01:11:21;;;;;;;0.60;0.60;;;10.90;99.90;;;;;;2076336;28;20427;-80
2023/12/26 01:12:22;;;;;;;0.57;0.57;;;10.90;99.90;;;;;;2078055;28;20219;-80
2023/12/26 01:13:23;;;;;;;0.60;0.60;;;10.90;99.90;;;;;;2079496;28;20029;-79
2023/12/26 01:14:24;;;;;;;0.60;0.60;;;10.90;99.90;;;;;;2076981;28;20053;-80
2023/12/26 01:15:24;;;;;;;0.50;0.50;;;10.90;99.90;;;;;;2085929;28;20033;-81
2023/12/26 01:16:27;;;;;;;0.60;0.60;;;10.90;99.90;;;;;;2070571;28;20041;-80
2023/12/26 01:17:28;;;;;;;0.60;0.60;;;10.90;99.90;;;;;;2068962;28;20500;-79
2023/12/26 01:18:32;;;;;;;0.65;0.65;;;10.80;99.90;;;;;;2069410;28;20033;-80
2023/12/26 01:19:32;;;;;;;0.57;0.57;;;10.90;99.90;;;;;;2056690;28;20247;-79
2023/12/26 01:20:33;;;;;;;0.57;0.57;;;10.90;99.90;;;;;;2069029;28;20105;-80
2023/12/26 01:21:33;;;;;;;0.55;0.55;;;10.90;99.90;;;;;;2077185;28;20528;-80
2023/12/26 01:22:34;;;;;;;0.50;0.50;;;10.90;99.90;;;;;;2076199;28;20037;-78
2023/12/26 01:23:35;;;;;;;0.52;0.50;;;10.80;99.90;;;;;;2080334;28;20029;-78
2023/12/26 01:24:35;;;;;;;1.45;0.50;;;10.90;99.90;;;;;;2085592;28;20120;-79
2023/12/26 01:25:36;;;;;;;0.60;0.60;;;10.90;99.90;;;;;;2083938;28;21137;-78
2023/12/26 01:26:36;;;;;;;0.65;0.63;;;11.00;99.90;;;;;;2072112;28;20033;-78
2023/12/26 01:27:37;;;;;;;0.60;0.60;;;10.90;99.90;;;;;;2086389;28;20062;-79
2023/12/26 01:28:37;;;;;;;0.50;0.50;;;10.90;99.90;;;;;;2071825;28;20135;-78
2023/12/26 01:29:40;;;;;;;0.60;0.60;;;10.80;99.90;;;;;;2070788;28;20057;-78
2023/12/26 01:30:41;;;;;;;0.50;0.50;;;10.90;99.90;;;;;;2075837;28;20029;-78
2023/12/26 01:31:42;;;;;;;0.68;0.68;;;10.90;99.90;;;;;;2081469;28;20063;-79
2023/12/26 01:32:42;;;;;;;0.70;0.70;;;10.90;99.90;;;;;;2074823;28;20603;-80
2023/12/26 01:33:43;;;;;;;0.60;0.60;;;10.90;99.90;;;;;;2079061;28;20032;-79
2023/12/26 01:34:43;;;;;;;0.68;0.68;;;10.90;99.90;;;;;;2083097;28;20087;-78
2023/12/26 01:35:45;;;;;;;0.63;0.63;;;10.90;99.90;;;;;;2078810;28;20500;-78
2023/12/26 01:36:45;;;;;;;0.73;0.73;;;10.90;99.90;;;;;;2078820;28;20032;-78
2023/12/26 01:37:46;;;;;;;0.60;0.60;;;10.90;99.90;;;;;;2075506;28;20431;-79
2023/12/26 01:38:47;;;;;;;0.60;0.60;;;11.00;99.90;;;;;;2079063;28;20044;-80
2023/12/26 01:39:47;;;;;;;0.60;0.60;;;11.00;99.90;;;;;;2079109;28;20029;-79
2023/12/26 01:40:48;;;;;;;0.60;0.60;;;11.00;99.90;;;;;;2075626;28;20480;-79
2023/12/26 01:41:48;;;;;;;0.60;0.60;;;11.00;99.90;;;;;;2081921;28;20127;-78
2023/12/26 01:42:49;;;;;;;0.65;0.65;;;11.00;99.90;;;;;;2077298;28;20025;-78
2023/12/26 01:43:50;;;;;;;0.60;0.60;;;11.00;99.90;;;;;;2075634;28;20547;-77
2023/12/26 01:44:50;;;;;;;0.50;0.50;;;11.00;99.90;;;;;;2078697;28;20026;-78
2023/12/26 01:45:57;;;;;;;0.60;0.60;;;11.00;99.90;;;;;;2079186;28;20028;-77
2023/12/26 01:47:00;;;;;;;0.57;0.57;;;11.00;99.90;;;;;;2084930;28;20103;-78
2023/12/26 01:48:03;;;;;;;1.08;0.60;;;11.00;99.90;;;;;;2084550;28;20573;-78
2023/12/26 01:49:04;;;;;;;0.60;0.60;;;11.00;99.90;;;;;;2079551;28;20041;-78
2023/12/26 01:50:05;;;;;;;0.60;0.60;;;11.00;99.90;;;;;;2074959;28;20087;-78
2023/12/26 01:51:09;;;;;;;0.57;0.57;;;11.00;99.90;;;;;;2077747;28;20060;-78
2023/12/26 01:52:12;;;;;;;0.60;0.60;;;11.00;99.90;;;;;;2083407;28;20106;-78
2023/12/26 01:53:14;;;;;;;0.70;0.70;;;11.00;99.90;;;;;;2086681;28;20039;-76
2023/12/26 01:54:15;;;;;;;0.60;0.60;;;11.00;99.90;;;;;;2079203;28;20049;-78
2023/12/26 01:55:17;;;;;;;0.70;0.70;;;11.10;99.90;;;;;;2075435;28;20029;-79
2023/12/26 01:56:18;;;;;;;0.60;0.60;;;11.00;99.90;;;;;;2075412;28;20052;-77
2023/12/26 01:57:19;;;;;;;0.50;0.50;;;11.10;99.90;;;;;;2078916;28;20036;-78
2023/12/26 01:58:19;;;;;;;0.60;0.60;;;11.00;99.90;;;;;;2078715;28;20041;-78
2023/12/26 01:59:20;;;;;;;0.60;0.60;;;11.00;99.90;;;;;;2075490;28;20037;-79
2023/12/26 02:00:21;;;;;;;0.65;0.65;;;11.00;99.90;;;;;;2086710;28;20377;-78
2023/12/26 02:01:23;;;;;;;0.50;0.50;;;11.00;99.90;;;;;;2078752;28;20063;-79
2023/12/26 02:02:25;;;;;;;1.63;0.70;;;11.00;99.90;;;;;;2075917;28;20060;-76
2023/12/26 02:03:26;;;;;;;0.60;0.60;;;11.00;99.90;;;;;;2077450;28;20029;-80
2023/12/26 02:04:27;;;;;;;0.60;0.60;;;11.10;99.90;;;;;;2078768;28;20071;-79
2023/12/26 02:05:29;;;;;;;0.60;0.60;;;11.10;99.90;;;;;;2084522;28;20049;-78
2023/12/26 02:06:30;;;;;;;0.63;0.63;;;11.10;99.90;;;;;;2080999;28;20067;-79
2023/12/26 02:07:31;;;;;;;0.70;0.70;;;11.10;99.90;;;;;;2070055;28;20108;-79
2023/12/26 02:08:32;;;;;;;0.60;0.60;;;11.10;99.90;;;;;;2068461;28;20481;-79
2023/12/26 02:09:33;;;;;;;0.68;0.68;;;11.10;99.90;;;;;;2076574;28;20112;-77
2023/12/26 02:10:33;;;;;;;0.50;0.50;;;11.10;99.90;;;;;;2083704;28;20147;-78
2023/12/26 02:11:34;;;;;;;0.60;0.60;;;11.00;99.90;;;;;;2075666;28;20588;-78
2023/12/26 02:12:35;;;;;;;0.60;0.60;;;11.10;99.90;;;;;;2075809;28;20561;-77
2023/12/26 02:13:36;;;;;;;0.60;0.60;;;11.10;99.90;;;;;;2085765;28;20067;-79
2023/12/26 02:14:37;;;;;;;0.50;0.50;;;11.10;99.90;;;;;;2075883;28;20064;-77
2023/12/26 02:15:38;;;;;;;0.60;0.60;;;11.10;99.90;;;;;;2075002;28;20033;-77
2023/12/26 02:16:41;;;;;;;0.60;0.60;;;11.10;99.90;;;;;;2083199;28;20043;-80
2023/12/26 02:17:43;;;;;;;0.50;0.50;;;11.10;99.90;;;;;;2074996;28;20033;-79
2023/12/26 02:18:44;;;;;;;0.60;0.60;;;11.00;99.90;;;;;;2079426;28;20026;-82
2023/12/26 02:19:49;;;;;;;0.70;0.70;;;11.00;99.90;;;;;;2079469;28;20661;-75
2023/12/26 02:20:49;;;;;;;0.68;0.60;;;11.00;99.90;;;;;;2075545;28;20447;-75
2023/12/26 02:21:50;;;;;;;0.60;0.60;;;11.00;99.90;;;;;;2086942;28;20017;-75
2023/12/26 02:22:50;;;;;;;0.70;0.70;;;11.00;99.90;;;;;;2089811;28;20420;-82
2023/12/26 02:23:55;;;;;;;0.60;0.60;;;11.00;99.90;;;;;;2079165;28;20034;-81
2023/12/26 02:24:56;;;;;;;0.90;0.60;;;11.00;99.90;;;;;;2083176;28;20029;-77
2023/12/26 02:25:57;;;;;;;0.60;0.60;;;11.00;99.90;;;;;;2084920;28;20080;-83
2023/12/26 02:26:59;;;;;;;0.60;0.60;;;11.00;99.90;;;;;;2088429;28;20017;-83
2023/12/26 02:28:02;;;;;;;0.70;0.70;;;11.00;99.90;;;;;;2086388;28;20026;-81
2023/12/26 02:29:05;;;;;;;0.60;0.60;;;10.90;99.90;;;;;;2080345;28;20029;-81
2023/12/26 02:30:08;;;;;;;0.60;0.60;;;10.90;99.90;;;;;;2075654;28;20456;-82
2023/12/26 02:31:09;;;;;;;0.70;0.70;;;10.90;99.90;;;;;;2071757;28;20358;-81
2023/12/26 02:32:12;;;;;;;0.60;0.60;;;10.90;99.90;;;;;;2088473;28;20541;-83
2023/12/26 02:33:13;;;;;;;0.70;0.70;;;11.00;99.90;;;;;;2079669;28;20631;-82
2023/12/26 02:34:14;;;;;;;0.60;0.60;;;11.00;99.90;;;;;;2069106;28;20088;-79
2023/12/26 02:35:16;;;;;;;0.65;0.60;;;11.00;99.90;;;;;;2071649;28;20014;-82
2023/12/26 02:36:17;;;;;;;0.70;0.70;;;11.00;99.90;;;;;;2075868;28;20064;-82
2023/12/26 02:37:18;;;;;;;0.63;0.63;;;11.00;99.90;;;;;;2080391;28;20518;-82
2023/12/26 02:38:19;;;;;;;0.70;0.70;;;10.90;99.90;;;;;;2079556;28;20113;-82
2023/12/26 02:39:20;;;;;;;0.60;0.60;;;10.90;99.90;;;;;;2076397;28;20056;-82
2023/12/26 02:40:20;;;;;;;0.68;0.65;;;10.90;99.90;;;;;;2071245;28;20052;-83
2023/12/26 02:41:21;;;;;;;0.60;0.60;;;10.90;99.90;;;;;;2072497;28;20039;-82
2023/12/26 02:42:24;;;;;;;0.68;0.68;;;11.00;99.90;;;;;;2064046;28;20404;-84
2023/12/26 02:43:28;;;;;;;0.60;0.60;;;10.90;99.90;;;;;;2071348;28;20033;-82
2023/12/26 02:44:28;;;;;;;0.60;0.60;;;10.90;99.90;;;;;;2064587;28;20046;-83
2023/12/26 02:45:29;;;;;;;0.70;0.70;;;10.90;99.90;;;;;;2060514;28;20054;-80
2023/12/26 02:46:29;;;;;;;0.70;0.70;;;11.00;99.90;;;;;;2070946;28;20030;-83
2023/12/26 02:47:30;;;;;;;1.73;0.80;;;11.00;99.90;;;;;;2072245;28;20040;-80
2023/12/26 02:48:31;;;;;;;0.52;0.52;;;11.00;99.90;;;;;;2075133;28;20136;-81
2023/12/26 02:49:31;;;;;;;0.70;0.70;;;11.00;99.90;;;;;;2081242;28;20037;-82
2023/12/26 02:50:32;;;;;;;1.55;0.70;;;11.00;99.90;;;;;;2073479;28;20129;-84
2023/12/26 02:51:35;;;;;;;0.73;0.60;;;11.00;99.90;;;;;;2072983;28;20033;-84
2023/12/26 02:52:35;;;;;;;0.70;0.70;;;11.00;99.90;;;;;;2080002;28;20307;-83
2023/12/26 02:53:36;;;;;;;0.70;0.70;;;11.00;99.90;;;;;;2082597;28;20045;-80
2023/12/26 02:54:37;;;;;;;0.70;0.70;;;11.00;99.90;;;;;;2069804;28;20124;-81
2023/12/26 02:55:38;;;;;;;0.88;0.70;;;11.00;99.90;;;;;;2078847;28;20410;-84
2023/12/26 02:56:38;;;;;;;0.70;0.70;;;11.00;99.90;;;;;;2078845;28;20033;-85
2023/12/26 02:57:39;;;;;;;0.68;0.68;;;11.00;99.90;;;;;;2075922;28;20116;-81
2023/12/26 02:58:40;;;;;;;0.60;0.60;;;10.90;99.90;;;;;;2070240;28;20022;-83
2023/12/26 02:59:40;;;;;;;0.75;0.70;;;10.90;99.90;;;;;;2079840;28;20049;-83
2023/12/26 03:00:41;;;;;;;0.70;0.70;;;10.90;99.90;;;;;;2078278;28;20418;-82
2023/12/26 03:01:44;;;;;;;0.70;0.70;;;11.00;99.90;;;;;;2080748;28;20045;-83
2023/12/26 03:02:46;;;;;;;0.95;0.65;;;11.00;99.90;;;;;;2079250;28;20025;-81
2023/12/26 03:03:46;;;;;;;0.68;0.68;;;11.00;99.90;;;;;;2084577;28;20033;-81
2023/12/26 03:04:47;;;;;;;0.70;0.70;;;11.00;99.90;;;;;;2087394;28;20096;-80
2023/12/26 03:05:48;;;;;;;0.60;0.60;;;11.00;99.90;;;;;;2078373;28;20033;-79
2023/12/26 03:06:48;;;;;;;0.70;0.70;;;10.90;99.90;;;;;;2067765;28;20057;-84
2023/12/26 03:07:49;;;;;;;0.70;0.70;;;11.00;99.90;;;;;;2071261;28;20022;-85
2023/12/26 03:08:50;;;;;;;0.63;0.63;;;10.90;99.90;;;;;;2071378;28;20033;-82
2023/12/26 03:09:52;;;;;;;0.63;0.60;;;10.90;99.90;;;;;;2075989;28;20025;-83
2023/12/26 03:10:54;;;;;;;0.70;0.70;;;10.90;99.90;;;;;;2075753;28;20029;-82
2023/12/26 03:11:54;;;;;;;1.30;0.75;;;10.90;99.90;;;;;;2079941;28;20032;-82
2023/12/26 03:12:55;;;;;;;0.70;0.70;;;10.90;99.90;;;;;;2076958;28;20025;-83
2023/12/26 03:13:56;;;;;;;1.02;0.75;;;10.90;99.90;;;;;;2076290;28;20068;-81
2023/12/26 03:14:56;;;;;;;0.77;0.70;;;10.90;99.90;;;;;;2079434;28;20021;-82
2023/12/26 03:15:57;;;;;;;0.85;0.73;;;10.90;99.90;;;;;;2068408;28;20022;-83
2023/12/26 03:16:57;;;;;;;0.80;0.80;;;10.90;99.90;;;;;;2079550;28;20060;-80
2023/12/26 03:17:58;;;;;;;0.77;0.77;;;10.90;99.90;;;;;;2075818;28;20109;-79
2023/12/26 03:18:59;;;;;;;0.80;0.70;;;10.90;99.90;;;;;;2075729;28;20357;-81
2023/12/26 03:19:59;;;;;;;0.75;0.75;;;10.90;99.90;;;;;;2080240;28;20519;-80
2023/12/26 03:21:00;;;;;;;0.70;0.70;;;10.80;99.90;;;;;;2081036;28;20032;-79
2023/12/26 03:22:01;;;;;;;0.85;0.80;;;10.80;99.90;;;;;;2071415;28;20073;-84
2023/12/26 03:23:01;;;;;;;0.80;0.80;;;10.80;99.90;;;;;;2069100;28;20080;-81
2023/12/26 03:24:02;;;;;;;0.90;0.90;;;10.80;99.90;;;;;;2087653;28;20064;-85
2023/12/26 03:25:03;;;;;;;0.95;0.85;;;10.80;99.90;;;;;;2087184;28;20029;-82
2023/12/26 03:26:06;;;;;;;0.80;0.80;;;10.80;99.90;;;;;;2079838;28;20094;-82
2023/12/26 03:27:07;;;;;;;0.90;0.90;;;10.80;99.90;;;;;;2076941;28;20026;-80
2023/12/26 03:28:08;;;;;;;0.80;0.80;;;10.80;99.90;;;;;;2077103;28;20167;-81
2023/12/26 03:29:08;;;;;;;1.30;0.93;;;10.80;99.90;;;;;;2080474;28;20017;-83
2023/12/26 03:30:09;;;;;;;1.50;0.88;;;10.80;99.90;;;;;;2078014;28;20017;-81
2023/12/26 03:31:10;;;;;;;0.85;0.80;;;10.80;99.90;;;;;;2073611;28;20499;-84
2023/12/26 03:32:10;;;;;;;1.10;0.88;;;10.80;99.90;;;;;;2079918;28;20108;-83
2023/12/26 03:33:11;;;;;;;0.70;0.70;;;10.80;99.90;;;;;;2070154;28;20132;-82
2023/12/26 03:34:12;;;;;;;0.80;0.80;;;10.80;99.90;;;;;;2069809;28;20025;-83
2023/12/26 03:35:13;;;;;;;1.48;1.00;;;10.80;99.90;;;;;;2076923;28;20021;-78
2023/12/26 03:36:13;;;;;;;0.80;0.80;;;10.80;99.90;;;;;;2077107;28;20116;-81
2023/12/26 03:37:14;;;;;;;0.90;0.90;;;10.80;99.90;;;;;;2077343;28;20056;-83
2023/12/26 03:38:15;;;;;;;0.82;0.80;;;10.80;99.90;;;;;;2081087;28;20030;-82
2023/12/26 03:39:16;;;;;;;0.90;0.90;;;10.90;99.90;;;;;;2079142;28;20032;-81
2023/12/26 03:40:16;;;;;;;0.93;0.80;;;10.90;99.90;;;;;;2069430;28;20037;-84
2023/12/26 03:41:17;;;;;;;0.80;0.80;;;10.80;99.90;;;;;;2076243;28;20033;-82
2023/12/26 03:42:18;;;;;;;0.98;0.90;;;10.80;99.90;;;;;;2076175;28;20068;-82
2023/12/26 03:43:19;;;;;;;1.02;0.80;;;10.80;99.90;;;;;;2079820;28;20056;-82
2023/12/26 03:44:19;;;;;;;1.05;0.90;;;10.80;99.90;;;;;;2074954;28;20045;-83
2023/12/26 03:45:20;;;;;;;1.00;0.90;;;10.80;99.90;;;;;;2076732;28;20040;-83
2023/12/26 03:46:20;;;;;;;0.80;0.80;;;10.90;99.90;;;;;;2080323;28;20570;-83
2023/12/26 03:47:21;;;;;;;1.00;1.00;;;10.90;99.90;;;;;;2079568;28;20171;-82
2023/12/26 03:48:22;;;;;;;0.90;0.90;;;10.90;99.90;;;;;;2079985;28;20039;-83
2023/12/26 03:49:22;;;;;;;1.10;1.10;;;10.90;99.90;;;;;;2069236;28;20029;-84
2023/12/26 03:50:25;;;;;;;0.95;0.95;;;10.90;99.90;;;;;;2060504;28;20062;-76
2023/12/26 03:51:27;;;;;;;1.77;0.90;;;10.90;99.90;;;;;;2064657;28;20196;-84
2023/12/26 03:52:28;;;;;;;0.90;0.90;;;10.80;99.90;;;;;;2072089;28;20091;-84
2023/12/26 03:53:28;;;;;;;1.00;1.00;;;10.90;99.90;;;;;;2076223;28;20097;-85
2023/12/26 03:54:29;;;;;;;0.90;0.90;;;10.90;99.90;;;;;;2079277;28;20083;-85
2023/12/26 03:55:31;;;;;;;0.80;0.80;;;10.90;99.90;;;;;;2072332;28;20541;-84
2023/12/26 03:56:33;;;;;;;0.88;0.88;;;10.90;99.90;;;;;;2077415;28;20055;-81
2023/12/26 03:57:33;;;;;;;1.10;0.80;;;10.90;99.90;;;;;;2080377;28;20528;-78
2023/12/26 03:58:34;;;;;;;1.10;1.00;;;10.90;99.90;;;;;;2078656;28;20041;-83
2023/12/26 03:59:34;;;;;;;1.00;0.90;;;10.90;99.90;;;;;;2080138;28;20025;-80
2023/12/26 04:00:35;;;;;;;0.90;0.90;;;10.90;99.90;;;;;;2077345;28;20029;-83
2023/12/26 04:01:35;;;;;;;2.13;1.10;;;10.90;99.90;;;;;;2078277;28;20444;-82
2023/12/26 04:02:36;;;;;;;1.00;0.90;;;10.90;99.90;;;;;;2075962;28;20467;-80
2023/12/26 04:03:37;;;;;;;1.10;1.00;;;10.90;99.90;;;;;;2069496;28;20034;-83
2023/12/26 04:04:37;;;;;;;0.90;0.90;;;10.80;99.90;;;;;;2070382;28;20057;-81
2023/12/26 04:05:38;;;;;;;0.90;0.90;;;10.80;99.90;;;;;;2079802;28;20291;-81
2023/12/26 04:06:38;;;;;;;0.98;0.90;;;10.80;99.90;;;;;;2077935;28;20025;-81
2023/12/26 04:07:40;;;;;;;0.88;0.88;;;10.90;99.90;;;;;;2069709;28;20029;-82
2023/12/26 04:08:40;;;;;;;1.05;0.95;;;10.90;99.90;;;;;;2067541;28;20029;-79
2023/12/26 04:09:41;;;;;;;1.10;1.00;;;10.80;99.90;;;;;;2078194;28;20032;-80
2023/12/26 04:10:42;;;;;;;1.00;0.90;;;10.80;99.90;;;;;;2077467;28;20059;-79
2023/12/26 04:11:43;;;;;;;1.67;0.90;;;10.90;99.90;;;;;;2076938;28;20036;-80
2023/12/26 04:12:43;;;;;;;1.02;0.90;;;10.90;99.90;;;;;;2075390;28;20065;-80
2023/12/26 04:13:44;;;;;;;0.95;0.80;;;10.90;99.90;;;;;;2070627;28;20659;-80
2023/12/26 04:14:45;;;;;;;1.13;0.90;;;10.90;99.90;;;;;;2067680;28;20657;-81
2023/12/26 04:15:45;;;;;;;1.13;1.02;;;10.80;99.90;;;;;;2076577;28;20199;-81
2023/12/26 04:16:46;;;;;;;0.90;0.90;;;10.80;99.90;;;;;;2076371;28;20082;-81
2023/12/26 04:17:46;;;;;;;0.80;0.80;;;10.90;99.90;;;;;;2072612;28;20169;-82
2023/12/26 04:18:47;;;;;;;1.00;0.90;;;10.90;99.90;;;;;;2070338;28;20030;-83
2023/12/26 04:19:48;;;;;;;1.65;0.90;;;10.80;99.90;;;;;;2077075;28;20027;-81
2023/12/26 04:20:48;;;;;;;0.93;0.90;;;10.90;99.90;;;;;;2079012;28;20029;-81
2023/12/26 04:21:49;;;;;;;0.90;0.90;;;10.90;99.90;;;;;;2076592;28;20026;-80
2023/12/26 04:22:49;;;;;;;0.80;0.80;;;10.90;99.90;;;;;;2080205;28;20028;-84
2023/12/26 04:23:50;;;;;;;1.52;0.90;;;10.90;99.90;;;;;;2079445;28;20636;-83
2023/12/26 04:24:51;;;;;;;0.90;0.90;;;10.80;99.90;;;;;;2076745;28;20025;-83
2023/12/26 04:25:52;;;;;;;1.15;1.00;;;10.90;99.90;;;;;;2078190;28;20403;-81
2023/12/26 04:26:53;;;;;;;1.10;0.80;;;10.80;99.90;;;;;;2079129;28;20029;-79
2023/12/26 04:27:54;;;;;;;1.00;1.00;;;10.80;99.90;;;;;;2067692;28;20038;-82
2023/12/26 04:28:54;;;;;;;1.10;1.00;;;10.80;99.90;;;;;;2064110;28;20500;-79
2023/12/26 04:29:55;;;;;;;0.93;0.93;;;10.90;99.90;;;;;;2080408;28;20075;-83
2023/12/26 04:30:56;;;;;;;1.05;0.90;;;10.90;99.90;;;;;;2071598;28;20028;-78
2023/12/26 04:31:57;;;;;;;0.80;0.80;;;10.90;99.90;;;;;;2076070;28;20201;-78
2023/12/26 04:32:57;;;;;;;0.90;0.90;;;10.90;99.90;;;;;;2075840;28;20053;-81
2023/12/26 04:33:58;;;;;;;1.10;1.10;;;10.90;99.90;;;;;;2080489;28;20358;-82
2023/12/26 04:34:59;;;;;;;0.80;0.80;;;10.90;99.90;;;;;;2075945;28;20503;-81
2023/12/26 04:36:00;;;;;;;0.80;0.80;;;10.90;99.90;;;;;;2079834;28;20068;-82
2023/12/26 04:37:00;;;;;;;0.80;0.80;;;10.90;99.90;;;;;;2067340;28;20117;-80
2023/12/26 04:38:01;;;;;;;1.00;0.90;;;10.90;99.90;;;;;;2060185;28;20498;-82
2023/12/26 04:39:04;;;;;;;1.13;1.02;;;10.80;99.90;;;;;;2079179;28;20025;-82
2023/12/26 04:40:05;;;;;;;0.82;0.82;;;10.80;99.90;;;;;;2079924;28;20017;-80
2023/12/26 04:41:11;;;;;;;0.90;0.90;;;10.80;99.90;;;;;;2069033;28;20431;-81
2023/12/26 04:42:12;;;;;;;0.90;0.90;;;10.90;99.90;;;;;;2069525;28;20109;-83
2023/12/26 04:43:15;;;;;;;1.00;0.90;;;10.90;99.90;;;;;;2069023;28;20024;-82
2023/12/26 04:44:16;;;;;;;0.70;0.70;;;10.90;99.90;;;;;;2072335;28;20120;-83
2023/12/26 04:45:16;;;;;;;1.40;0.90;;;10.80;99.90;;;;;;2079442;28;20029;-80
2023/12/26 04:46:20;;;;;;;1.65;0.80;;;10.80;99.90;;;;;;2078521;28;20553;-83
2023/12/26 04:47:20;;;;;;;0.93;0.90;;;10.90;99.90;;;;;;2077138;28;20105;-80
2023/12/26 04:48:21;;;;;;;1.73;0.90;;;10.90;99.90;;;;;;2080178;28;20048;-78
2023/12/26 04:49:21;;;;;;;0.80;0.80;;;10.90;99.90;;;;;;2079269;28;20021;-81
2023/12/26 04:50:22;;;;;;;0.80;0.80;;;10.90;99.90;;;;;;2085459;28;20044;-80
2023/12/26 04:51:23;;;;;;;0.80;0.80;;;10.80;99.90;;;;;;2081045;28;20097;-82
2023/12/26 04:52:23;;;;;;;0.80;0.80;;;10.80;99.90;;;;;;2087650;28;20487;-81
2023/12/26 04:53:24;;;;;;;0.85;0.80;;;10.80;99.90;;;;;;2077066;28;20049;-82
2023/12/26 04:54:26;;;;;;;1.15;0.90;;;10.90;99.90;;;;;;2081946;28;20032;-82
2023/12/26 04:55:26;;;;;;;1.00;0.70;;;10.90;99.90;;;;;;2088793;28;20024;-80
2023/12/26 04:56:27;;;;;;;1.08;0.70;;;10.90;99.90;;;;;;2073322;28;20025;-78
2023/12/26 04:57:28;;;;;;;0.80;0.80;;;10.90;99.90;;;;;;2077135;28;20029;-79
2023/12/26 04:58:29;;;;;;;0.80;0.80;;;10.90;99.90;;;;;;2084878;28;20025;-80
2023/12/26 04:59:29;;;;;;;1.60;0.70;;;10.90;99.90;;;;;;2076045;28;20057;-79
2023/12/26 05:00:30;;;;;;;0.80;0.80;;;10.90;99.90;;;;;;2075972;28;20025;-79
2023/12/26 05:01:30;;;;;;;1.00;0.80;;;10.90;99.90;;;;;;2078584;28;20036;-81
2023/12/26 05:02:31;;;;;;;1.48;0.88;;;10.90;99.90;;;;;;2076344;28;20037;-80
2023/12/26 05:03:32;;;;;;;2.10;0.80;;;10.90;99.90;;;;;;2071768;28;20456;-81
2023/12/26 05:04:32;;;;;;;0.70;0.70;;;10.90;99.90;;;;;;2071338;28;20030;-79
2023/12/26 05:05:33;;;;;;;0.82;0.77;;;10.90;99.90;;;;;;2070294;28;20408;-80
2023/12/26 05:06:33;;;;;;;1.13;0.80;;;10.90;99.90;;;;;;2064268;28;20041;-79
2023/12/26 05:07:34;;;;;;;0.70;0.70;;;10.90;99.90;;;;;;2069932;28;20152;-80
2023/12/26 05:08:38;;;;;;;0.70;0.70;;;10.90;99.90;;;;;;2081487;28;20211;-79
2023/12/26 05:09:39;;;;;;;1.25;0.77;;;10.80;99.90;;;;;;2081443;28;20025;-79
2023/12/26 05:10:39;;;;;;;0.70;0.70;;;10.80;99.90;;;;;;2069846;28;20025;-83
2023/12/26 05:11:40;;;;;;;0.68;0.68;;;10.90;99.90;;;;;;2068805;28;20429;-83
2023/12/26 05:12:41;;;;;;;0.80;0.80;;;10.90;99.90;;;;;;2080672;28;20032;-81
2023/12/26 05:13:42;;;;;;;0.70;0.70;;;10.90;99.90;;;;;;2078939;28;20517;-81
2023/12/26 05:14:42;;;;;;;1.63;0.73;;;10.90;99.90;;;;;;2079810;28;20396;-83
2023/12/26 05:15:44;;;;;;;1.67;0.80;;;10.90;99.90;;;;;;2080992;28;20116;-80
2023/12/26 05:16:45;;;;;;;0.75;0.75;;;10.80;99.90;;;;;;2086331;28;20025;-79
2023/12/26 05:17:46;;;;;;;0.88;0.80;;;10.90;99.90;;;;;;2086801;28;20032;-81